sensor_id;sensor_type;location;lat;lon;timestamp;pressure;altitude;pressure_sealevel;temperature;humidity
29315;BME280;16320;53.954;9.506;2023-05-07T00:02:26;101923.00;;;9.42;100.00
29315;BME280;16320;53.954;9.506;2023-05-07T00:05:31;101919.53;;;9.41;100.00
29315;BME280;16320;53.954;9.506;2023-05-07T00:08:35;101909.84;;;9.43;100.00
29315;BME280;16320;53.954;9.506;2023-05-07T00:11:40;101913.25;;;9.47;100.00
29315;BME280;16320;53.954;9.506;2023-05-07T00:14:44;101913.25;;;9.47;100.00
29315;BME280;16320;53.954;9.506;2023-05-07T00:17:49;101914.22;;;9.44;100.00
29315;BME280;16320;53.954;9.506;2023-05-07T00:20:54;101915.88;;;9.47;100.00
29315;BME280;16320;53.954;9.506;2023-05-07T00:23:59;101914.97;;;9.48;100.00
29315;BME280;16320;53.954;9.506;2023-05-07T00:27:03;101907.97;;;9.48;100.00
29315;BME280;16320;53.954;9.506;2023-05-07T00:30:08;101900.94;;;9.50;100.00
29315;BME280;16320;53.954;9.506;2023-05-07T00:33:13;101897.44;;;9.50;100.00
29315;BME280;16320;53.954;9.506;2023-05-07T00:36:17;101887.66;;;9.55;100.00
29315;BME280;16320;53.954;9.506;2023-05-07T00:39:21;101888.66;;;9.51;100.00
29315;BME280;16320;53.954;9.506;2023-05-07T00:42:25;101880.84;;;9.49;100.00
29315;BME280;16320;53.954;9.506;2023-05-07T00:45:30;101877.38;;;9.49;100.00
29315;BME280;16320;53.954;9.506;2023-05-07T00:48:34;101883.47;;;9.49;100.00
29315;BME280;16320;53.954;9.506;2023-05-07T00:51:39;101865.97;;;9.50;100.00
29315;BME280;16320;53.954;9.506;2023-05-07T00:54:43;101867.78;;;9.48;100.00
29315;BME280;16320;53.954;9.506;2023-05-07T00:57:50;101872.00;;;9.52;100.00
29315;BME280;16320;53.954;9.506;2023-05-07T01:00:54;101866.88;;;9.49;100.00
29315;BME280;16320;53.954;9.506;2023-05-07T01:03:59;101874.63;;;9.52;100.00
29315;BME280;16320;53.954;9.506;2023-05-07T01:07:05;101865.91;;;9.51;100.00
29315;BME280;16320;53.954;9.506;2023-05-07T01:10:10;101864.09;;;9.53;100.00
29315;BME280;16320;53.954;9.506;2023-05-07T01:13:16;101873.81;;;9.50;100.00
29315;BME280;16320;53.954;9.506;2023-05-07T01:16:20;101859.91;;;9.48;100.00
29315;BME280;16320;53.954;9.506;2023-05-07T01:19:26;101866.09;;;9.45;100.00
29315;BME280;16320;53.954;9.506;2023-05-07T01:22:38;101866.97;;;9.46;100.00
29315;BME280;16320;53.954;9.506;2023-05-07T01:25:42;101869.66;;;9.43;100.00
29315;BME280;16320;53.954;9.506;2023-05-07T01:28:47;101867.84;;;9.45;100.00
29315;BME280;16320;53.954;9.506;2023-05-07T01:31:52;101866.97;;;9.46;100.00
29315;BME280;16320;53.954;9.506;2023-05-07T01:34:58;101858.19;;;9.47;100.00
29315;BME280;16320;53.954;9.506;2023-05-07T01:38:04;101859.09;;;9.46;100.00
29315;BME280;16320;53.954;9.506;2023-05-07T01:41:11;101853.81;;;9.47;100.00
29315;BME280;16320;53.954;9.506;2023-05-07T01:44:17;101844.22;;;9.46;100.00
29315;BME280;16320;53.954;9.506;2023-05-07T01:47:23;101855.56;;;9.47;100.00
29315;BME280;16320;53.954;9.506;2023-05-07T01:50:27;101859.91;;;9.48;100.00
29315;BME280;16320;53.954;9.506;2023-05-07T01:53:37;101863.34;;;9.50;100.00
29315;BME280;16320;53.954;9.506;2023-05-07T01:56:41;101868.56;;;9.50;100.00
29315;BME280;16320;53.954;9.506;2023-05-07T01:59:46;101865.09;;;9.49;100.00
29315;BME280;16320;53.954;9.506;2023-05-07T02:02:50;101856.44;;;9.47;100.00
29315;BME280;16320;53.954;9.506;2023-05-07T02:05:57;101870.31;;;9.51;100.00
29315;BME280;16320;53.954;9.506;2023-05-07T02:09:02;101866.00;;;9.48;100.00
29315;BME280;16320;53.954;9.506;2023-05-07T02:12:06;101860.00;;;9.45;100.00
29315;BME280;16320;53.954;9.506;2023-05-07T02:15:10;101869.63;;;9.44;100.00
29315;BME280;16320;53.954;9.506;2023-05-07T02:18:16;101877.53;;;9.43;100.00
29315;BME280;16320;53.954;9.506;2023-05-07T02:21:20;101881.06;;;9.42;100.00
29315;BME280;16320;53.954;9.506;2023-05-07T02:24:25;101889.84;;;9.41;100.00
29315;BME280;16320;53.954;9.506;2023-05-07T02:27:29;101887.16;;;9.42;100.00
29315;BME280;16320;53.954;9.506;2023-05-07T02:30:36;101902.03;;;9.42;100.00
29315;BME280;16320;53.954;9.506;2023-05-07T02:33:40;101902.03;;;9.42;100.00
29315;BME280;16320;53.954;9.506;2023-05-07T02:36:45;101904.56;;;9.45;100.00
29315;BME280;16320;53.954;9.506;2023-05-07T02:39:50;101894.13;;;9.43;100.00
29315;BME280;16320;53.954;9.506;2023-05-07T02:42:55;101894.97;;;9.44;100.00
29315;BME280;16320;53.954;9.506;2023-05-07T02:46:06;101894.09;;;9.45;100.00
29315;BME280;16320;53.954;9.506;2023-05-07T02:49:11;101901.06;;;9.46;100.00
29315;BME280;16320;53.954;9.506;2023-05-07T02:52:16;101903.69;;;9.46;100.00
29315;BME280;16320;53.954;9.506;2023-05-07T02:55:20;101912.53;;;9.42;100.00
29315;BME280;16320;53.954;9.506;2023-05-07T02:58:24;101911.63;;;9.43;100.00
29315;BME280;16320;53.954;9.506;2023-05-07T03:01:29;101905.66;;;9.38;100.00
29315;BME280;16320;53.954;9.506;2023-05-07T03:04:34;101914.34;;;9.40;100.00
29315;BME280;16320;53.954;9.506;2023-05-07T03:07:39;101908.00;;;9.47;100.00
29315;BME280;16320;53.954;9.506;2023-05-07T03:10:43;101905.47;;;9.44;100.00
29315;BME280;16320;53.954;9.506;2023-05-07T03:13:47;101909.97;;;9.39;100.00
29315;BME280;16320;53.954;9.506;2023-05-07T03:16:53;101907.44;;;9.35;100.00
29315;BME280;16320;53.954;9.506;2023-05-07T03:19:58;101910.91;;;9.38;100.00
29315;BME280;16320;53.954;9.506;2023-05-07T03:23:03;101923.00;;;9.42;100.00
29315;BME280;16320;53.954;9.506;2023-05-07T03:26:07;101923.00;;;9.42;100.00
29315;BME280;16320;53.954;9.506;2023-05-07T03:29:11;101921.16;;;9.45;100.00
29315;BME280;16320;53.954;9.506;2023-05-07T03:32:15;101917.84;;;9.39;100.00
29315;BME280;16320;53.954;9.506;2023-05-07T03:35:20;101916.19;;;9.36;100.00
29315;BME280;16320;53.954;9.506;2023-05-07T03:38:24;101915.38;;;9.32;100.00
29315;BME280;16320;53.954;9.506;2023-05-07T03:41:28;101916.38;;;9.28;100.00
29315;BME280;16320;53.954;9.506;2023-05-07T03:44:34;101913.72;;;9.30;100.00
29315;BME280;16320;53.954;9.506;2023-05-07T03:47:40;101907.59;;;9.31;100.00
29315;BME280;16320;53.954;9.506;2023-05-07T03:50:44;101909.34;;;9.30;100.00
29315;BME280;16320;53.954;9.506;2023-05-07T03:53:49;101913.81;;;9.27;100.00
29315;BME280;16320;53.954;9.506;2023-05-07T03:56:53;101916.47;;;9.25;100.00
29315;BME280;16320;53.954;9.506;2023-05-07T03:59:58;101923.38;;;9.29;100.00
29315;BME280;16320;53.954;9.506;2023-05-07T04:03:02;101923.25;;;9.32;100.00
29315;BME280;16320;53.954;9.506;2023-05-07T04:06:07;101921.56;;;9.31;100.00
29315;BME280;16320;53.954;9.506;2023-05-07T04:09:12;101923.25;;;9.32;100.00
29315;BME280;16320;53.954;9.506;2023-05-07T04:12:16;101933.66;;;9.35;100.00
29315;BME280;16320;53.954;9.506;2023-05-07T04:15:21;101930.22;;;9.33;100.00
29315;BME280;16320;53.954;9.506;2023-05-07T04:18:26;101934.75;;;9.28;100.00
29315;BME280;16320;53.954;9.506;2023-05-07T04:21:30;101937.28;;;9.31;100.00
29315;BME280;16320;53.954;9.506;2023-05-07T04:24:34;101928.59;;;9.29;100.00
29315;BME280;16320;53.954;9.506;2023-05-07T04:27:39;101929.47;;;9.30;100.00
29315;BME280;16320;53.954;9.506;2023-05-07T04:30:43;101928.50;;;9.32;100.00
29315;BME280;16320;53.954;9.506;2023-05-07T04:33:48;101926.03;;;9.28;100.00
29315;BME280;16320;53.954;9.506;2023-05-07T04:36:52;101913.94;;;9.22;100.00
29315;BME280;16320;53.954;9.506;2023-05-07T04:39:57;101918.38;;;9.20;100.00
29315;BME280;16320;53.954;9.506;2023-05-07T04:43:01;101916.56;;;9.22;100.00
29315;BME280;16320;53.954;9.506;2023-05-07T04:46:05;101908.69;;;9.22;100.00
29315;BME280;16320;53.954;9.506;2023-05-07T04:49:10;101914.75;;;9.24;100.00
29315;BME280;16320;53.954;9.506;2023-05-07T04:52:15;101924.28;;;9.27;100.00
29315;BME280;16320;53.954;9.506;2023-05-07T04:55:19;101918.13;;;9.29;100.00
29315;BME280;16320;53.954;9.506;2023-05-07T04:58:24;101918.09;;;9.31;100.00
29315;BME280;16320;53.954;9.506;2023-05-07T05:01:28;101926.88;;;9.28;100.00
29315;BME280;16320;53.954;9.506;2023-05-07T05:04:33;101931.88;;;9.38;100.00
29315;BME280;16320;53.954;9.506;2023-05-07T05:07:37;101939.59;;;9.42;100.00
29315;BME280;16320;53.954;9.506;2023-05-07T05:10:42;101939.50;;;9.45;100.00
29315;BME280;16320;53.954;9.506;2023-05-07T05:13:47;101928.25;;;9.42;100.00
29315;BME280;16320;53.954;9.506;2023-05-07T05:16:53;101936.94;;;9.44;100.00
29315;BME280;16320;53.954;9.506;2023-05-07T05:19:58;101936.00;;;9.46;100.00
29315;BME280;16320;53.954;9.506;2023-05-07T05:23:02;101940.31;;;9.49;100.00
29315;BME280;16320;53.954;9.506;2023-05-07T05:26:06;101942.00;;;9.50;100.00
29315;BME280;16320;53.954;9.506;2023-05-07T05:29:11;101955.06;;;9.53;100.00
29315;BME280;16320;53.954;9.506;2023-05-07T05:32:15;101941.09;;;9.52;100.00
29315;BME280;16320;53.954;9.506;2023-05-07T05:35:19;101947.19;;;9.53;100.00
29315;BME280;16320;53.954;9.506;2023-05-07T05:38:24;101943.78;;;9.49;100.00
29315;BME280;16320;53.954;9.506;2023-05-07T05:41:29;101947.22;;;9.51;100.00
29315;BME280;16320;53.954;9.506;2023-05-07T05:44:34;101946.22;;;9.57;100.00
29315;BME280;16320;53.954;9.506;2023-05-07T05:47:38;101952.34;;;9.56;100.00
29315;BME280;16320;53.954;9.506;2023-05-07T05:50:43;101953.06;;;9.61;100.00
29315;BME280;16320;53.954;9.506;2023-05-07T05:53:54;101959.25;;;9.60;100.00
29315;BME280;16320;53.954;9.506;2023-05-07T05:56:58;101954.75;;;9.64;100.00
29315;BME280;16320;53.954;9.506;2023-05-07T06:00:04;101962.59;;;9.65;100.00
29315;BME280;16320;53.954;9.506;2023-05-07T06:03:09;101960.94;;;9.61;100.00
29315;BME280;16320;53.954;9.506;2023-05-07T06:06:14;101963.53;;;9.63;100.00
29315;BME280;16320;53.954;9.506;2023-05-07T06:09:18;101958.34;;;9.60;100.00
29315;BME280;16320;53.954;9.506;2023-05-07T06:12:23;101964.38;;;9.63;100.00
29315;BME280;16320;53.954;9.506;2023-05-07T06:15:28;101964.34;;;9.65;100.00
29315;BME280;16320;53.954;9.506;2023-05-07T06:18:32;101955.53;;;9.67;100.00
29315;BME280;16320;53.954;9.506;2023-05-07T06:21:36;101967.69;;;9.71;100.00
29315;BME280;16320;53.954;9.506;2023-05-07T06:24:40;101963.19;;;9.75;100.00
29315;BME280;16320;53.954;9.506;2023-05-07T06:27:45;101969.28;;;9.76;100.00
29315;BME280;16320;53.954;9.506;2023-05-07T06:30:49;101973.53;;;9.81;100.00
29315;BME280;16320;53.954;9.506;2023-05-07T06:33:54;101969.03;;;9.85;100.00
29315;BME280;16320;53.954;9.506;2023-05-07T06:36:59;101966.50;;;9.82;100.00
29315;BME280;16320;53.954;9.506;2023-05-07T06:40:05;101983.06;;;9.84;100.00
29315;BME280;16320;53.954;9.506;2023-05-07T06:43:11;101977.88;;;9.81;100.00
29315;BME280;16320;53.954;9.506;2023-05-07T06:46:15;101970.81;;;9.83;100.00
29315;BME280;16320;53.954;9.506;2023-05-07T06:49:20;101965.69;;;9.80;100.00
29315;BME280;16320;53.954;9.506;2023-05-07T06:52:24;101965.47;;;9.86;100.00
29315;BME280;16320;53.954;9.506;2023-05-07T06:55:28;101967.22;;;9.87;100.00
29315;BME280;16320;53.954;9.506;2023-05-07T06:58:33;101960.81;;;9.96;100.00
29315;BME280;16320;53.954;9.506;2023-05-07T07:01:37;101963.31;;;10.00;100.00
29315;BME280;16320;53.954;9.506;2023-05-07T07:04:42;101969.16;;;10.10;100.00
29315;BME280;16320;53.954;9.506;2023-05-07T07:07:47;101968.13;;;10.16;100.00
29315;BME280;16320;53.954;9.506;2023-05-07T07:10:57;101965.41;;;10.19;100.00
29315;BME280;16320;53.954;9.506;2023-05-07T07:14:02;101954.72;;;10.25;100.00
29315;BME280;16320;53.954;9.506;2023-05-07T07:17:07;101955.44;;;10.30;100.00
29315;BME280;16320;53.954;9.506;2023-05-07T07:20:11;101946.41;;;10.40;100.00
29315;BME280;16320;53.954;9.506;2023-05-07T07:23:15;101954.91;;;10.49;100.00
29315;BME280;16320;53.954;9.506;2023-05-07T07:26:20;101942.47;;;10.54;100.00
29315;BME280;16320;53.954;9.506;2023-05-07T07:29:25;101964.28;;;10.56;100.00
29315;BME280;16320;53.954;9.506;2023-05-07T07:32:30;101945.63;;;10.65;100.00
29315;BME280;16320;53.954;9.506;2023-05-07T07:35:36;101939.38;;;10.69;100.00
29315;BME280;16320;53.954;9.506;2023-05-07T07:38:41;101928.81;;;10.71;100.00
29315;BME280;16320;53.954;9.506;2023-05-07T07:41:45;101926.88;;;10.76;100.00
29315;BME280;16320;53.954;9.506;2023-05-07T07:44:49;101924.41;;;10.71;100.00
29315;BME280;16320;53.954;9.506;2023-05-07T07:47:54;101929.56;;;10.74;100.00
29315;BME280;16320;53.954;9.506;2023-05-07T07:50:58;101927.63;;;10.79;100.00
29315;BME280;16320;53.954;9.506;2023-05-07T07:54:03;101948.44;;;10.86;100.00
29315;BME280;16320;53.954;9.506;2023-05-07T07:57:08;101939.53;;;10.90;100.00
29315;BME280;16320;53.954;9.506;2023-05-07T08:00:12;101946.31;;;10.97;100.00
29315;BME280;16320;53.954;9.506;2023-05-07T08:03:17;101936.00;;;10.91;100.00
29315;BME280;16320;53.954;9.506;2023-05-07T08:06:22;101943.84;;;10.92;100.00
29315;BME280;16320;53.954;9.506;2023-05-07T08:09:26;101953.28;;;10.98;100.00
29315;BME280;16320;53.954;9.506;2023-05-07T08:12:31;101950.34;;;11.07;100.00
29315;BME280;16320;53.954;9.506;2023-05-07T08:15:35;101952.03;;;11.10;100.00
29315;BME280;16320;53.954;9.506;2023-05-07T08:18:39;101943.84;;;11.17;100.00
29315;BME280;16320;53.954;9.506;2023-05-07T08:21:44;101940.91;;;11.27;100.00
29315;BME280;16320;53.954;9.506;2023-05-07T08:24:49;101954.84;;;11.29;100.00
29315;BME280;16320;53.954;9.506;2023-05-07T08:27:53;101947.31;;;11.20;100.00
29315;BME280;16320;53.954;9.506;2023-05-07T08:30:57;101944.34;;;11.29;100.00
29315;BME280;16320;53.954;9.506;2023-05-07T08:34:05;101945.16;;;11.31;100.00
29315;BME280;16320;53.954;9.506;2023-05-07T08:37:13;101945.84;;;11.36;100.00
29315;BME280;16320;53.954;9.506;2023-05-07T08:40:18;101942.75;;;11.48;100.00
29315;BME280;16320;53.954;9.506;2023-05-07T08:43:26;101955.53;;;11.59;100.00
29315;BME280;16320;53.954;9.506;2023-05-07T08:46:31;101965.63;;;11.71;100.00
29315;BME280;16320;53.954;9.506;2023-05-07T08:49:36;101971.16;;;11.87;100.00
29315;BME280;16320;53.954;9.506;2023-05-07T08:52:41;101962.59;;;11.82;100.00
29315;BME280;16320;53.954;9.506;2023-05-07T08:55:59;101970.22;;;11.90;100.00
29315;BME280;16320;53.954;9.506;2023-05-07T08:59:11;101975.47;;;11.90;100.00
29315;BME280;16320;53.954;9.506;2023-05-07T09:02:16;101959.09;;;11.82;100.00
29315;BME280;16320;53.954;9.506;2023-05-07T09:05:22;101962.59;;;11.82;100.00
29315;BME280;16320;53.954;9.506;2023-05-07T09:08:27;101960.22;;;11.75;100.00
29315;BME280;16320;53.954;9.506;2023-05-07T09:11:31;101972.59;;;11.72;100.00
29315;BME280;16320;53.954;9.506;2023-05-07T09:14:36;101972.59;;;11.72;100.00
29315;BME280;16320;53.954;9.506;2023-05-07T09:17:41;101966.28;;;11.78;100.00
29315;BME280;16320;53.954;9.506;2023-05-07T09:20:46;101972.81;;;11.92;100.00
29315;BME280;16320;53.954;9.506;2023-05-07T09:23:53;101962.19;;;11.95;100.00
29315;BME280;16320;53.954;9.506;2023-05-07T09:27:06;101976.41;;;12.13;100.00
29315;BME280;16320;53.954;9.506;2023-05-07T09:30:13;101975.88;;;12.26;100.00
29315;BME280;16320;53.954;9.506;2023-05-07T09:33:18;101971.44;;;12.29;100.00
29315;BME280;16320;53.954;9.506;2023-05-07T09:36:23;101975.69;;;12.31;100.00
29315;BME280;16320;53.954;9.506;2023-05-07T09:39:49;101970.81;;;12.44;100.00
29315;BME280;16320;53.954;9.506;2023-05-07T09:42:54;101961.69;;;12.53;100.00
29315;BME280;16320;53.954;9.506;2023-05-07T09:45:59;101950.09;;;12.57;100.00
29315;BME280;16320;53.954;9.506;2023-05-07T09:49:21;101971.53;;;12.70;100.00
29315;BME280;16320;53.954;9.506;2023-05-07T09:52:25;101954.69;;;12.74;100.00
29315;BME280;16320;53.954;9.506;2023-05-07T09:55:35;101966.16;;;12.73;100.00
29315;BME280;16320;53.954;9.506;2023-05-07T09:58:40;101961.25;;;12.63;100.00
29315;BME280;16320;53.954;9.506;2023-05-07T10:01:45;101969.81;;;12.69;100.00
29315;BME280;16320;53.954;9.506;2023-05-07T10:04:50;101973.22;;;12.72;100.00
29315;BME280;16320;53.954;9.506;2023-05-07T10:07:55;101976.31;;;12.82;100.00
29315;BME280;16320;53.954;9.506;2023-05-07T10:11:06;101982.31;;;12.86;100.00
29315;BME280;16320;53.954;9.506;2023-05-07T10:14:10;101975.38;;;12.83;100.00
29315;BME280;16320;53.954;9.506;2023-05-07T10:17:16;101966.16;;;12.73;100.00
29315;BME280;16320;53.954;9.506;2023-05-07T10:20:21;101969.69;;;12.72;100.00
29315;BME280;16320;53.954;9.506;2023-05-07T10:23:26;101966.28;;;12.70;100.00
29315;BME280;16320;53.954;9.506;2023-05-07T10:26:32;101961.72;;;12.73;100.00
29315;BME280;16320;53.954;9.506;2023-05-07T10:30:15;101971.66;;;12.89;100.00
29315;BME280;16320;53.954;9.506;2023-05-07T10:33:26;101964.19;;;13.19;100.00
29315;BME280;16320;53.954;9.506;2023-05-07T10:36:31;101958.69;;;13.46;100.00
29315;BME280;16320;53.954;9.506;2023-05-07T10:39:40;101957.91;;;13.44;100.00
29315;BME280;16320;53.954;9.506;2023-05-07T10:43:00;101962.69;;;13.35;100.00
29315;BME280;16320;53.954;9.506;2023-05-07T10:46:18;101972.03;;;13.43;100.00
29315;BME280;16320;53.954;9.506;2023-05-07T10:49:23;101981.03;;;13.58;100.00
29315;BME280;16320;53.954;9.506;2023-05-07T10:52:28;101965.88;;;13.82;100.00
29315;BME280;16320;53.954;9.506;2023-05-07T10:55:34;101972.75;;;13.86;100.00
29315;BME280;16320;53.954;9.506;2023-05-07T10:58:38;101952.81;;;13.79;100.00
29315;BME280;16320;53.954;9.506;2023-05-07T11:02:09;101964.09;;;13.82;100.00
29315;BME280;16320;53.954;9.506;2023-05-07T11:05:22;101954.84;;;13.93;100.00
29315;BME280;16320;53.954;9.506;2023-05-07T11:08:56;101956.97;;;14.03;100.00
29315;BME280;16320;53.954;9.506;2023-05-07T11:12:00;101954.13;;;14.27;100.00
29315;BME280;16320;53.954;9.506;2023-05-07T11:15:12;101952.84;;;14.17;100.00
29315;BME280;16320;53.954;9.506;2023-05-07T11:18:19;101951.53;;;14.06;100.00
29315;BME280;16320;53.954;9.506;2023-05-07T11:21:39;101964.53;;;14.30;100.00
29315;BME280;16320;53.954;9.506;2023-05-07T11:24:46;101954.22;;;14.79;100.00
29315;BME280;16320;53.954;9.506;2023-05-07T11:27:51;101949.50;;;15.04;100.00
29315;BME280;16320;53.954;9.506;2023-05-07T11:30:57;101926.16;;;14.94;100.00
29315;BME280;16320;53.954;9.506;2023-05-07T11:34:01;101922.66;;;14.76;100.00
29315;BME280;16320;53.954;9.506;2023-05-07T11:37:06;101940.25;;;14.95;100.00
29315;BME280;16320;53.954;9.506;2023-05-07T11:40:11;101926.84;;;15.15;100.00
29315;BME280;16320;53.954;9.506;2023-05-07T11:43:18;101926.88;;;15.49;100.00
29315;BME280;16320;53.954;9.506;2023-05-07T11:46:23;101903.88;;;15.49;100.00
29315;BME280;16320;53.954;9.506;2023-05-07T11:49:28;101908.25;;;15.50;100.00
29315;BME280;16320;53.954;9.506;2023-05-07T11:52:34;101909.97;;;15.67;100.00
29315;BME280;16320;53.954;9.506;2023-05-07T11:55:39;101913.69;;;15.81;100.00
29315;BME280;16320;53.954;9.506;2023-05-07T11:58:45;101904.06;;;15.96;100.00
29315;BME280;16320;53.954;9.506;2023-05-07T12:01:49;101900.63;;;16.09;100.00
29315;BME280;16320;53.954;9.506;2023-05-07T12:04:54;101909.91;;;16.33;100.00
29315;BME280;16320;53.954;9.506;2023-05-07T12:07:59;101896.94;;;16.58;100.00
29315;BME280;16320;53.954;9.506;2023-05-07T12:11:03;101897.34;;;16.66;100.00
29315;BME280;16320;53.954;9.506;2023-05-07T12:14:10;101888.28;;;16.71;100.00
29315;BME280;16320;53.954;9.506;2023-05-07T12:17:16;101902.25;;;17.19;100.00
29315;BME280;16320;53.954;9.506;2023-05-07T12:20:21;101893.03;;;17.25;100.00
29315;BME280;16320;53.954;9.506;2023-05-07T12:23:26;101893.91;;;17.11;100.00
29315;BME280;16320;53.954;9.506;2023-05-07T12:26:30;101886.69;;;17.27;100.00
29315;BME280;16320;53.954;9.506;2023-05-07T12:29:35;101877.00;;;17.55;100.00
29315;BME280;16320;53.954;9.506;2023-05-07T12:32:39;101894.34;;;17.89;100.00
29315;BME280;16320;53.954;9.506;2023-05-07T12:35:44;101887.03;;;17.79;100.00
29315;BME280;16320;53.954;9.506;2023-05-07T12:38:50;101877.66;;;17.73;100.00
29315;BME280;16320;53.954;9.506;2023-05-07T12:41:55;101887.78;;;17.95;100.00
29315;BME280;16320;53.954;9.506;2023-05-07T12:45:00;101890.09;;;18.41;100.00
29315;BME280;16320;53.954;9.506;2023-05-07T12:48:12;101876.41;;;18.73;100.00
29315;BME280;16320;53.954;9.506;2023-05-07T12:51:16;101886.19;;;18.60;100.00
29315;BME280;16320;53.954;9.506;2023-05-07T12:54:31;101883.69;;;18.31;100.00
29315;BME280;16320;53.954;9.506;2023-05-07T12:57:47;101879.94;;;18.06;100.00
29315;BME280;16320;53.954;9.506;2023-05-07T13:00:53;101888.50;;;18.11;100.00
29315;BME280;16320;53.954;9.506;2023-05-07T13:04:01;101868.56;;;18.32;100.00
29315;BME280;16320;53.954;9.506;2023-05-07T13:07:07;101879.44;;;18.41;100.00
29315;BME280;16320;53.954;9.506;2023-05-07T13:10:11;101872.31;;;18.15;100.00
29315;BME280;16320;53.954;9.506;2023-05-07T13:13:16;101872.44;;;18.13;100.00
29315;BME280;16320;53.954;9.506;2023-05-07T13:16:20;101874.25;;;18.13;100.00
29315;BME280;16320;53.954;9.506;2023-05-07T13:19:25;101870.53;;;17.88;100.00
29315;BME280;16320;53.954;9.506;2023-05-07T13:22:32;101863.13;;;17.64;100.00
29315;BME280;16320;53.954;9.506;2023-05-07T13:25:36;101870.53;;;17.59;100.00
29315;BME280;16320;53.954;9.506;2023-05-07T13:28:42;101854.94;;;17.82;100.00
29315;BME280;16320;53.954;9.506;2023-05-07T13:31:47;101867.00;;;18.15;100.00
29315;BME280;16320;53.954;9.506;2023-05-07T13:34:53;101859.66;;;18.45;100.00
29315;BME280;16320;53.954;9.506;2023-05-07T13:37:58;101862.69;;;18.66;100.00
29315;BME280;16320;53.954;9.506;2023-05-07T13:41:02;101855.72;;;18.91;100.00
29315;BME280;16320;53.954;9.506;2023-05-07T13:44:07;101873.13;;;18.82;100.00
29315;BME280;16320;53.954;9.506;2023-05-07T13:47:11;101858.44;;;18.64;100.00
29315;BME280;16320;53.954;9.506;2023-05-07T13:50:15;101859.16;;;18.66;100.00
29315;BME280;16320;53.954;9.506;2023-05-07T13:53:20;101864.81;;;18.74;100.00
29315;BME280;16320;53.954;9.506;2023-05-07T13:56:25;101856.88;;;19.00;100.00
29315;BME280;16320;53.954;9.506;2023-05-07T13:59:29;101854.22;;;19.26;100.00
29315;BME280;16320;53.954;9.506;2023-05-07T14:02:34;101843.63;;;19.50;100.00
29315;BME280;16320;53.954;9.506;2023-05-07T14:05:38;101840.28;;;19.59;100.00
29315;BME280;16320;53.954;9.506;2023-05-07T14:08:43;101848.03;;;19.75;100.00
29315;BME280;16320;53.954;9.506;2023-05-07T14:11:47;101842.63;;;19.64;100.00
29315;BME280;16320;53.954;9.506;2023-05-07T14:14:55;101837.22;;;19.52;100.00
29315;BME280;16320;53.954;9.506;2023-05-07T14:18:02;101821.63;;;19.09;100.00
29315;BME280;16320;53.954;9.506;2023-05-07T14:21:06;101823.53;;;18.69;100.00
29315;BME280;16320;53.954;9.506;2023-05-07T14:24:11;101830.00;;;18.11;100.00
29315;BME280;16320;53.954;9.506;2023-05-07T14:27:16;101827.31;;;17.84;100.00
29315;BME280;16320;53.954;9.506;2023-05-07T14:30:21;101839.03;;;17.53;100.00
29315;BME280;16320;53.954;9.506;2023-05-07T14:33:28;101847.81;;;17.26;100.00
29315;BME280;16320;53.954;9.506;2023-05-07T14:36:33;101849.63;;;17.11;100.00
29315;BME280;16320;53.954;9.506;2023-05-07T14:39:37;101849.81;;;17.08;100.00
29315;BME280;16320;53.954;9.506;2023-05-07T14:42:41;101848.75;;;17.39;100.00
29315;BME280;16320;53.954;9.506;2023-05-07T14:45:46;101840.19;;;17.63;100.00
29315;BME280;16320;53.954;9.506;2023-05-07T14:48:51;101850.28;;;18.40;100.00
29315;BME280;16320;53.954;9.506;2023-05-07T14:51:57;101835.84;;;18.57;100.00
29315;BME280;16320;53.954;9.506;2023-05-07T14:55:07;101848.13;;;18.32;100.00
29315;BME280;16320;53.954;9.506;2023-05-07T14:58:12;101844.88;;;18.41;100.00
29315;BME280;16320;53.954;9.506;2023-05-07T15:01:17;101848.25;;;18.83;100.00
29315;BME280;16320;53.954;9.506;2023-05-07T15:04:21;101844.84;;;19.07;100.00
29315;BME280;16320;53.954;9.506;2023-05-07T15:07:25;101847.50;;;19.07;100.00
29315;BME280;16320;53.954;9.506;2023-05-07T15:10:30;101855.91;;;18.75;100.00
29315;BME280;16320;53.954;9.506;2023-05-07T15:13:34;101857.72;;;18.35;100.00
29315;BME280;16320;53.954;9.506;2023-05-07T15:16:38;101864.00;;;18.34;100.00
29315;BME280;16320;53.954;9.506;2023-05-07T15:19:43;101863.22;;;18.19;100.00
29315;BME280;16320;53.954;9.506;2023-05-07T15:22:51;101857.94;;;18.32;100.00
29315;BME280;16320;53.954;9.506;2023-05-07T15:25:55;101844.34;;;18.36;100.00
29315;BME280;16320;53.954;9.506;2023-05-07T15:28:59;101855.56;;;18.27;100.00
29315;BME280;16320;53.954;9.506;2023-05-07T15:32:04;101840.66;;;18.11;100.00
29315;BME280;16320;53.954;9.506;2023-05-07T15:35:09;101857.19;;;18.02;100.00
29315;BME280;16320;53.954;9.506;2023-05-07T15:38:14;101866.50;;;17.95;100.00
29315;BME280;16320;53.954;9.506;2023-05-07T15:41:19;101866.13;;;17.87;100.00
29315;BME280;16320;53.954;9.506;2023-05-07T15:44:24;101865.22;;;17.59;100.00
29315;BME280;16320;53.954;9.506;2023-05-07T15:47:33;101865.44;;;17.42;100.00
29315;BME280;16320;53.954;9.506;2023-05-07T15:50:41;101867.16;;;17.28;100.00
29315;BME280;16320;53.954;9.506;2023-05-07T15:53:46;101874.81;;;17.04;100.00
29315;BME280;16320;53.954;9.506;2023-05-07T15:56:50;101869.03;;;16.97;100.00
29315;BME280;16320;53.954;9.506;2023-05-07T15:59:55;101872.47;;;16.99;100.00
29315;BME280;16320;53.954;9.506;2023-05-07T16:02:59;101869.59;;;17.02;100.00
29315;BME280;16320;53.954;9.506;2023-05-07T16:06:04;101864.00;;;16.93;100.00